sensor_id;sensor_type;location;lat;lon;timestamp;P1;durP1;ratioP1;P2;durP2;ratioP2
15567;SDS011;7885;42.596;23.044;2023-07-20T00:00:06;5.90;;;2.30;;
15567;SDS011;7885;42.596;23.044;2023-07-20T00:02:33;5.53;;;2.50;;
15567;SDS011;7885;42.596;23.044;2023-07-20T00:05:00;7.17;;;2.57;;
15567;SDS011;7885;42.596;23.044;2023-07-20T00:07:27;5.40;;;2.73;;
15567;SDS011;7885;42.596;23.044;2023-07-20T00:09:53;7.03;;;2.63;;
15567;SDS011;7885;42.596;23.044;2023-07-20T00:12:21;7.33;;;2.87;;
15567;SDS011;7885;42.596;23.044;2023-07-20T00:14:48;6.07;;;2.77;;
15567;SDS011;7885;42.596;23.044;2023-07-20T00:17:18;6.73;;;2.90;;
15567;SDS011;7885;42.596;23.044;2023-07-20T00:19:45;8.10;;;3.37;;
15567;SDS011;7885;42.596;23.044;2023-07-20T00:22:12;9.67;;;3.63;;
15567;SDS011;7885;42.596;23.044;2023-07-20T00:24:39;7.80;;;3.27;;
15567;SDS011;7885;42.596;23.044;2023-07-20T00:27:06;7.47;;;2.97;;
15567;SDS011;7885;42.596;23.044;2023-07-20T00:29:34;7.97;;;3.13;;
15567;SDS011;7885;42.596;23.044;2023-07-20T00:32:01;7.50;;;2.97;;
15567;SDS011;7885;42.596;23.044;2023-07-20T00:34:30;9.20;;;3.10;;
15567;SDS011;7885;42.596;23.044;2023-07-20T00:36:56;7.17;;;2.60;;
15567;SDS011;7885;42.596;23.044;2023-07-20T00:39:23;5.37;;;3.00;;
15567;SDS011;7885;42.596;23.044;2023-07-20T00:41:50;9.20;;;3.10;;
15567;SDS011;7885;42.596;23.044;2023-07-20T00:44:16;7.70;;;2.93;;
15567;SDS011;7885;42.596;23.044;2023-07-20T00:46:45;9.83;;;3.00;;
15567;SDS011;7885;42.596;23.044;2023-07-20T00:49:11;8.43;;;3.00;;
15567;SDS011;7885;42.596;23.044;2023-07-20T00:51:38;6.13;;;2.70;;
15567;SDS011;7885;42.596;23.044;2023-07-20T00:54:05;6.10;;;2.97;;
15567;SDS011;7885;42.596;23.044;2023-07-20T00:56:33;7.23;;;2.90;;
15567;SDS011;7885;42.596;23.044;2023-07-20T00:59:00;5.50;;;2.90;;
15567;SDS011;7885;42.596;23.044;2023-07-20T01:01:27;11.63;;;3.13;;
15567;SDS011;7885;42.596;23.044;2023-07-20T01:03:55;7.93;;;3.07;;
15567;SDS011;7885;42.596;23.044;2023-07-20T01:06:24;6.73;;;3.03;;
15567;SDS011;7885;42.596;23.044;2023-07-20T01:08:59;5.17;;;2.57;;
15567;SDS011;7885;42.596;23.044;2023-07-20T01:11:36;6.53;;;2.83;;
15567;SDS011;7885;42.596;23.044;2023-07-20T01:14:05;6.50;;;3.00;;
15567;SDS011;7885;42.596;23.044;2023-07-20T01:16:32;9.07;;;2.90;;
15567;SDS011;7885;42.596;23.044;2023-07-20T01:19:01;8.07;;;3.20;;
15567;SDS011;7885;42.596;23.044;2023-07-20T01:21:30;9.90;;;3.10;;
15567;SDS011;7885;42.596;23.044;2023-07-20T01:27:11;6.67;;;3.60;;
15567;SDS011;7885;42.596;23.044;2023-07-20T01:30:08;8.87;;;3.47;;
15567;SDS011;7885;42.596;23.044;2023-07-20T01:33:04;10.57;;;3.80;;
15567;SDS011;7885;42.596;23.044;2023-07-20T01:35:33;9.70;;;3.80;;
15567;SDS011;7885;42.596;23.044;2023-07-20T01:38:02;16.23;;;5.20;;
15567;SDS011;7885;42.596;23.044;2023-07-20T01:40:31;13.63;;;4.60;;
15567;SDS011;7885;42.596;23.044;2023-07-20T01:42:57;15.73;;;4.77;;
15567;SDS011;7885;42.596;23.044;2023-07-20T01:45:24;13.07;;;4.00;;
15567;SDS011;7885;42.596;23.044;2023-07-20T01:47:51;19.90;;;4.03;;
15567;SDS011;7885;42.596;23.044;2023-07-20T01:50:20;11.80;;;3.93;;
15567;SDS011;7885;42.596;23.044;2023-07-20T01:52:46;10.40;;;3.77;;
15567;SDS011;7885;42.596;23.044;2023-07-20T01:55:13;9.60;;;3.93;;
15567;SDS011;7885;42.596;23.044;2023-07-20T01:57:40;10.43;;;3.80;;
15567;SDS011;7885;42.596;23.044;2023-07-20T02:00:07;8.17;;;3.60;;
15567;SDS011;7885;42.596;23.044;2023-07-20T02:02:34;9.13;;;3.40;;
15567;SDS011;7885;42.596;23.044;2023-07-20T02:05:01;7.87;;;3.37;;
15567;SDS011;7885;42.596;23.044;2023-07-20T02:07:29;5.67;;;3.13;;
15567;SDS011;7885;42.596;23.044;2023-07-20T02:09:56;6.63;;;3.47;;
15567;SDS011;7885;42.596;23.044;2023-07-20T02:12:23;5.43;;;3.10;;
15567;SDS011;7885;42.596;23.044;2023-07-20T02:14:49;9.20;;;3.77;;
15567;SDS011;7885;42.596;23.044;2023-07-20T02:17:17;9.57;;;3.87;;
15567;SDS011;7885;42.596;23.044;2023-07-20T02:19:43;7.07;;;3.73;;
15567;SDS011;7885;42.596;23.044;2023-07-20T02:22:10;6.27;;;3.00;;
15567;SDS011;7885;42.596;23.044;2023-07-20T02:24:38;11.00;;;4.20;;
15567;SDS011;7885;42.596;23.044;2023-07-20T02:27:05;8.83;;;3.63;;
15567;SDS011;7885;42.596;23.044;2023-07-20T02:29:32;9.77;;;3.77;;
15567;SDS011;7885;42.596;23.044;2023-07-20T02:31:59;10.20;;;4.50;;
15567;SDS011;7885;42.596;23.044;2023-07-20T02:34:25;16.37;;;5.20;;
15567;SDS011;7885;42.596;23.044;2023-07-20T02:36:52;11.40;;;4.43;;
15567;SDS011;7885;42.596;23.044;2023-07-20T02:39:21;9.47;;;4.97;;
15567;SDS011;7885;42.596;23.044;2023-07-20T02:41:49;16.23;;;5.97;;
15567;SDS011;7885;42.596;23.044;2023-07-20T02:44:16;15.53;;;5.30;;
15567;SDS011;7885;42.596;23.044;2023-07-20T02:46:42;15.47;;;4.60;;
15567;SDS011;7885;42.596;23.044;2023-07-20T02:49:09;20.53;;;5.33;;
15567;SDS011;7885;42.596;23.044;2023-07-20T02:51:36;13.03;;;4.97;;
15567;SDS011;7885;42.596;23.044;2023-07-20T02:54:03;13.30;;;4.57;;
15567;SDS011;7885;42.596;23.044;2023-07-20T02:56:29;15.90;;;4.70;;
15567;SDS011;7885;42.596;23.044;2023-07-20T02:58:57;13.03;;;4.93;;
15567;SDS011;7885;42.596;23.044;2023-07-20T03:01:24;18.43;;;4.97;;
15567;SDS011;7885;42.596;23.044;2023-07-20T03:03:54;15.00;;;4.87;;
15567;SDS011;7885;42.596;23.044;2023-07-20T03:06:21;17.17;;;5.50;;
15567;SDS011;7885;42.596;23.044;2023-07-20T03:08:48;15.80;;;5.90;;
15567;SDS011;7885;42.596;23.044;2023-07-20T03:11:17;17.43;;;5.70;;
15567;SDS011;7885;42.596;23.044;2023-07-20T03:13:44;13.60;;;4.60;;
15567;SDS011;7885;42.596;23.044;2023-07-20T03:16:14;23.17;;;5.47;;
15567;SDS011;7885;42.596;23.044;2023-07-20T03:18:45;12.03;;;5.00;;
15567;SDS011;7885;42.596;23.044;2023-07-20T03:21:12;14.00;;;4.50;;
15567;SDS011;7885;42.596;23.044;2023-07-20T03:23:39;13.10;;;4.70;;
15567;SDS011;7885;42.596;23.044;2023-07-20T03:26:06;11.17;;;4.93;;
15567;SDS011;7885;42.596;23.044;2023-07-20T03:28:33;16.10;;;5.10;;
15567;SDS011;7885;42.596;23.044;2023-07-20T03:31:00;13.20;;;5.00;;
15567;SDS011;7885;42.596;23.044;2023-07-20T03:33:29;13.53;;;4.80;;
15567;SDS011;7885;42.596;23.044;2023-07-20T03:35:57;14.10;;;4.57;;
15567;SDS011;7885;42.596;23.044;2023-07-20T03:38:24;18.63;;;5.00;;
15567;SDS011;7885;42.596;23.044;2023-07-20T03:40:52;11.27;;;4.53;;
15567;SDS011;7885;42.596;23.044;2023-07-20T03:43:20;17.97;;;5.37;;
15567;SDS011;7885;42.596;23.044;2023-07-20T03:45:48;20.20;;;5.13;;
15567;SDS011;7885;42.596;23.044;2023-07-20T03:51:38;16.27;;;5.20;;
15567;SDS011;7885;42.596;23.044;2023-07-20T03:54:04;12.60;;;4.53;;
15567;SDS011;7885;42.596;23.044;2023-07-20T03:56:33;13.23;;;5.60;;
15567;SDS011;7885;42.596;23.044;2023-07-20T03:59:00;14.37;;;5.57;;
15567;SDS011;7885;42.596;23.044;2023-07-20T04:01:27;12.30;;;5.60;;
15567;SDS011;7885;42.596;23.044;2023-07-20T04:03:54;18.47;;;5.90;;
15567;SDS011;7885;42.596;23.044;2023-07-20T04:06:21;17.73;;;5.60;;
15567;SDS011;7885;42.596;23.044;2023-07-20T04:08:49;17.33;;;6.00;;
15567;SDS011;7885;42.596;23.044;2023-07-20T04:11:16;18.03;;;6.87;;
15567;SDS011;7885;42.596;23.044;2023-07-20T04:13:42;40.53;;;7.80;;
15567;SDS011;7885;42.596;23.044;2023-07-20T04:16:09;19.40;;;6.67;;
15567;SDS011;7885;42.596;23.044;2023-07-20T04:18:36;21.83;;;9.03;;
15567;SDS011;7885;42.596;23.044;2023-07-20T04:21:02;22.17;;;8.87;;
15567;SDS011;7885;42.596;23.044;2023-07-20T04:23:29;17.27;;;8.63;;
15567;SDS011;7885;42.596;23.044;2023-07-20T04:25:57;23.67;;;9.13;;
15567;SDS011;7885;42.596;23.044;2023-07-20T04:28:24;22.10;;;8.13;;
15567;SDS011;7885;42.596;23.044;2023-07-20T04:30:50;22.23;;;9.10;;
15567;SDS011;7885;42.596;23.044;2023-07-20T04:33:18;20.27;;;7.53;;
15567;SDS011;7885;42.596;23.044;2023-07-20T04:35:46;21.73;;;7.80;;
15567;SDS011;7885;42.596;23.044;2023-07-20T04:38:14;18.23;;;8.63;;
15567;SDS011;7885;42.596;23.044;2023-07-20T04:40:43;23.77;;;8.93;;
15567;SDS011;7885;42.596;23.044;2023-07-20T04:46:33;21.83;;;7.97;;
15567;SDS011;7885;42.596;23.044;2023-07-20T04:48:59;22.20;;;7.60;;
15567;SDS011;7885;42.596;23.044;2023-07-20T04:51:26;26.80;;;7.97;;
15567;SDS011;7885;42.596;23.044;2023-07-20T04:53:55;30.77;;;8.97;;
15567;SDS011;7885;42.596;23.044;2023-07-20T04:56:22;46.80;;;11.93;;
15567;SDS011;7885;42.596;23.044;2023-07-20T04:58:49;41.87;;;11.30;;
15567;SDS011;7885;42.596;23.044;2023-07-20T05:01:15;55.33;;;12.30;;
15567;SDS011;7885;42.596;23.044;2023-07-20T05:03:43;55.97;;;11.20;;
15567;SDS011;7885;42.596;23.044;2023-07-20T05:06:10;49.10;;;10.90;;
15567;SDS011;7885;42.596;23.044;2023-07-20T05:08:37;50.13;;;12.33;;
15567;SDS011;7885;42.596;23.044;2023-07-20T05:11:04;61.80;;;13.80;;
15567;SDS011;7885;42.596;23.044;2023-07-20T05:13:32;64.03;;;12.90;;
15567;SDS011;7885;42.596;23.044;2023-07-20T05:15:59;46.40;;;12.03;;
15567;SDS011;7885;42.596;23.044;2023-07-20T05:18:25;50.63;;;11.97;;
15567;SDS011;7885;42.596;23.044;2023-07-20T05:20:53;41.87;;;11.90;;
15567;SDS011;7885;42.596;23.044;2023-07-20T05:23:20;40.03;;;11.37;;
15567;SDS011;7885;42.596;23.044;2023-07-20T05:25:47;32.13;;;11.17;;
15567;SDS011;7885;42.596;23.044;2023-07-20T05:28:20;26.97;;;10.33;;
15567;SDS011;7885;42.596;23.044;2023-07-20T05:30:47;33.57;;;10.07;;
15567;SDS011;7885;42.596;23.044;2023-07-20T05:33:14;26.20;;;10.83;;
15567;SDS011;7885;42.596;23.044;2023-07-20T05:35:40;28.70;;;9.00;;
15567;SDS011;7885;42.596;23.044;2023-07-20T05:38:08;30.50;;;9.90;;
15567;SDS011;7885;42.596;23.044;2023-07-20T05:40:36;28.30;;;10.50;;
15567;SDS011;7885;42.596;23.044;2023-07-20T05:43:03;32.90;;;10.10;;
15567;SDS011;7885;42.596;23.044;2023-07-20T05:45:30;47.37;;;11.30;;
15567;SDS011;7885;42.596;23.044;2023-07-20T05:47:57;38.27;;;9.73;;
15567;SDS011;7885;42.596;23.044;2023-07-20T05:50:23;31.53;;;9.67;;
15567;SDS011;7885;42.596;23.044;2023-07-20T05:52:51;24.90;;;8.93;;
15567;SDS011;7885;42.596;23.044;2023-07-20T05:55:20;25.57;;;9.23;;
15567;SDS011;7885;42.596;23.044;2023-07-20T05:57:47;32.70;;;9.87;;
15567;SDS011;7885;42.596;23.044;2023-07-20T06:00:15;31.00;;;9.00;;
15567;SDS011;7885;42.596;23.044;2023-07-20T06:02:44;36.03;;;8.30;;
15567;SDS011;7885;42.596;23.044;2023-07-20T06:05:12;33.43;;;9.43;;
15567;SDS011;7885;42.596;23.044;2023-07-20T06:07:39;26.80;;;8.97;;
15567;SDS011;7885;42.596;23.044;2023-07-20T06:10:06;42.07;;;9.93;;
15567;SDS011;7885;42.596;23.044;2023-07-20T06:12:35;33.27;;;8.93;;
15567;SDS011;7885;42.596;23.044;2023-07-20T06:15:02;29.27;;;8.00;;
15567;SDS011;7885;42.596;23.044;2023-07-20T06:17:30;28.83;;;8.40;;
15567;SDS011;7885;42.596;23.044;2023-07-20T06:19:56;28.87;;;9.20;;
15567;SDS011;7885;42.596;23.044;2023-07-20T06:22:23;23.03;;;8.23;;
15567;SDS011;7885;42.596;23.044;2023-07-20T06:24:50;29.07;;;8.07;;
15567;SDS011;7885;42.596;23.044;2023-07-20T06:27:17;24.40;;;7.67;;
15567;SDS011;7885;42.596;23.044;2023-07-20T06:29:45;24.83;;;8.13;;
15567;SDS011;7885;42.596;23.044;2023-07-20T06:32:11;23.90;;;7.72;;
15567;SDS011;7885;42.596;23.044;2023-07-20T06:34:38;23.23;;;7.63;;
15567;SDS011;7885;42.596;23.044;2023-07-20T06:37:05;28.77;;;8.65;;
15567;SDS011;7885;42.596;23.044;2023-07-20T06:39:32;26.08;;;7.25;;
15567;SDS011;7885;42.596;23.044;2023-07-20T06:58:48;19.88;;;6.28;;
15567;SDS011;7885;42.596;23.044;2023-07-20T07:01:15;19.17;;;6.32;;
15567;SDS011;7885;42.596;23.044;2023-07-20T07:03:42;15.80;;;5.97;;
15567;SDS011;7885;42.596;23.044;2023-07-20T07:06:09;18.77;;;5.93;;
15567;SDS011;7885;42.596;23.044;2023-07-20T07:08:35;19.75;;;5.82;;
15567;SDS011;7885;42.596;23.044;2023-07-20T07:11:02;18.42;;;5.95;;
15567;SDS011;7885;42.596;23.044;2023-07-20T07:13:29;16.52;;;6.00;;
15567;SDS011;7885;42.596;23.044;2023-07-20T07:15:57;17.70;;;5.53;;
15567;SDS011;7885;42.596;23.044;2023-07-20T07:18:24;13.60;;;5.10;;
15567;SDS011;7885;42.596;23.044;2023-07-20T07:20:51;17.00;;;5.30;;
15567;SDS011;7885;42.596;23.044;2023-07-20T07:26:40;15.95;;;5.03;;
15567;SDS011;7885;42.596;23.044;2023-07-20T07:29:06;15.15;;;4.85;;
15567;SDS011;7885;42.596;23.044;2023-07-20T07:31:35;11.32;;;4.53;;
15567;SDS011;7885;42.596;23.044;2023-07-20T07:34:02;13.77;;;4.57;;
15567;SDS011;7885;42.596;23.044;2023-07-20T07:36:29;16.50;;;4.75;;
15567;SDS011;7885;42.596;23.044;2023-07-20T07:38:55;14.18;;;4.18;;
15567;SDS011;7885;42.596;23.044;2023-07-20T07:41:22;14.85;;;4.65;;
15567;SDS011;7885;42.596;23.044;2023-07-20T07:43:49;15.68;;;5.07;;
15567;SDS011;7885;42.596;23.044;2023-07-20T07:46:16;9.20;;;4.15;;
15567;SDS011;7885;42.596;23.044;2023-07-20T07:48:44;11.38;;;4.25;;
15567;SDS011;7885;42.596;23.044;2023-07-20T07:51:10;10.98;;;4.10;;
15567;SDS011;7885;42.596;23.044;2023-07-20T07:53:38;7.72;;;3.85;;
15567;SDS011;7885;42.596;23.044;2023-07-20T07:56:06;9.68;;;4.20;;
15567;SDS011;7885;42.596;23.044;2023-07-20T07:58:33;9.55;;;3.92;;
15567;SDS011;7885;42.596;23.044;2023-07-20T08:01:00;10.40;;;4.05;;
15567;SDS011;7885;42.596;23.044;2023-07-20T08:03:27;7.82;;;3.92;;
15567;SDS011;7885;42.596;23.044;2023-07-20T08:05:55;6.78;;;3.60;;
15567;SDS011;7885;42.596;23.044;2023-07-20T08:08:22;7.40;;;3.50;;
15567;SDS011;7885;42.596;23.044;2023-07-20T08:10:49;8.45;;;3.85;;
15567;SDS011;7885;42.596;23.044;2023-07-20T08:13:19;7.00;;;3.72;;
15567;SDS011;7885;42.596;23.044;2023-07-20T08:15:48;9.05;;;3.72;;
15567;SDS011;7885;42.596;23.044;2023-07-20T08:18:16;6.47;;;4.03;;
15567;SDS011;7885;42.596;23.044;2023-07-20T08:20:43;6.65;;;3.95;;
15567;SDS011;7885;42.596;23.044;2023-07-20T08:23:11;6.65;;;4.05;;
15567;SDS011;7885;42.596;23.044;2023-07-20T08:25:38;10.93;;;3.67;;
15567;SDS011;7885;42.596;23.044;2023-07-20T08:28:08;8.13;;;3.25;;
15567;SDS011;7885;42.596;23.044;2023-07-20T08:30:39;10.75;;;3.50;;
15567;SDS011;7885;42.596;23.044;2023-07-20T08:33:07;5.68;;;3.05;;
15567;SDS011;7885;42.596;23.044;2023-07-20T08:35:34;10.43;;;3.55;;
15567;SDS011;7885;42.596;23.044;2023-07-20T08:38:01;9.27;;;3.28;;
15567;SDS011;7885;42.596;23.044;2023-07-20T08:40:31;10.45;;;3.28;;
15567;SDS011;7885;42.596;23.044;2023-07-20T08:42:58;7.55;;;3.05;;
15567;SDS011;7885;42.596;23.044;2023-07-20T08:45:25;9.35;;;2.92;;
15567;SDS011;7885;42.596;23.044;2023-07-20T08:47:54;6.07;;;3.25;;
15567;SDS011;7885;42.596;23.044;2023-07-20T08:50:22;6.97;;;2.60;;
15567;SDS011;7885;42.596;23.044;2023-07-20T08:52:50;9.38;;;2.90;;
15567;SDS011;7885;42.596;23.044;2023-07-20T08:55:19;9.30;;;2.75;;
15567;SDS011;7885;42.596;23.044;2023-07-20T08:57:48;10.23;;;3.10;;
15567;SDS011;7885;42.596;23.044;2023-07-20T09:00:17;7.53;;;2.63;;
15567;SDS011;7885;42.596;23.044;2023-07-20T09:02:47;4.10;;;2.53;;
15567;SDS011;7885;42.596;23.044;2023-07-20T09:05:16;5.03;;;2.72;;
15567;SDS011;7885;42.596;23.044;2023-07-20T09:07:43;7.35;;;2.95;;
15567;SDS011;7885;42.596;23.044;2023-07-20T09:10:10;6.50;;;3.17;;
15567;SDS011;7885;42.596;23.044;2023-07-20T09:12:37;8.45;;;3.22;;
15567;SDS011;7885;42.596;23.044;2023-07-20T09:15:06;6.30;;;3.00;;
15567;SDS011;7885;42.596;23.044;2023-07-20T09:17:34;6.85;;;2.78;;
15567;SDS011;7885;42.596;23.044;2023-07-20T09:20:02;10.30;;;3.15;;
15567;SDS011;7885;42.596;23.044;2023-07-20T09:22:33;8.98;;;3.15;;
15567;SDS011;7885;42.596;23.044;2023-07-20T09:25:00;5.25;;;3.05;;
15567;SDS011;7885;42.596;23.044;2023-07-20T09:27:34;6.50;;;2.63;;
15567;SDS011;7885;42.596;23.044;2023-07-20T09:30:02;6.32;;;2.70;;
15567;SDS011;7885;42.596;23.044;2023-07-20T09:32:31;9.13;;;2.75;;
15567;SDS011;7885;42.596;23.044;2023-07-20T09:35:04;7.10;;;2.88;;
15567;SDS011;7885;42.596;23.044;2023-07-20T09:37:32;6.40;;;3.00;;
15567;SDS011;7885;42.596;23.044;2023-07-20T09:39:59;7.72;;;2.63;;
15567;SDS011;7885;42.596;23.044;2023-07-20T09:42:26;6.60;;;2.53;;
15567;SDS011;7885;42.596;23.044;2023-07-20T09:44:53;10.15;;;3.00;;
15567;SDS011;7885;42.596;23.044;2023-07-20T09:47:23;7.53;;;2.58;;
15567;SDS011;7885;42.596;23.044;2023-07-20T09:49:53;13.90;;;2.83;;
15567;SDS011;7885;42.596;23.044;2023-07-20T09:52:24;9.10;;;2.75;;
15567;SDS011;7885;42.596;23.044;2023-07-20T09:54:52;6.18;;;2.70;;
15567;SDS011;7885;42.596;23.044;2023-07-20T09:57:21;9.90;;;2.88;;
15567;SDS011;7885;42.596;23.044;2023-07-20T09:59:47;6.18;;;2.80;;
15567;SDS011;7885;42.596;23.044;2023-07-20T10:02:18;9.30;;;2.80;;
15567;SDS011;7885;42.596;23.044;2023-07-20T10:04:47;13.40;;;4.18;;
15567;SDS011;7885;42.596;23.044;2023-07-20T10:07:21;10.23;;;3.45;;
15567;SDS011;7885;42.596;23.044;2023-07-20T10:09:50;18.75;;;5.40;;
15567;SDS011;7885;42.596;23.044;2023-07-20T10:12:19;15.07;;;4.60;;
15567;SDS011;7885;42.596;23.044;2023-07-20T10:14:49;6.90;;;2.85;;
15567;SDS011;7885;42.596;23.044;2023-07-20T10:17:22;7.82;;;2.47;;
15567;SDS011;7885;42.596;23.044;2023-07-20T10:19:54;4.60;;;2.53;;
15567;SDS011;7885;42.596;23.044;2023-07-20T10:22:26;25.38;;;7.57;;
15567;SDS011;7885;42.596;23.044;2023-07-20T10:24:56;5.72;;;3.03;;
15567;SDS011;7885;42.596;23.044;2023-07-20T10:27:26;27.52;;;8.30;;
15567;SDS011;7885;42.596;23.044;2023-07-20T10:29:53;8.43;;;3.03;;
15567;SDS011;7885;42.596;23.044;2023-07-20T10:32:21;7.57;;;2.95;;
15567;SDS011;7885;42.596;23.044;2023-07-20T10:34:50;5.75;;;3.08;;
15567;SDS011;7885;42.596;23.044;2023-07-20T10:40:24;5.53;;;2.97;;
15567;SDS011;7885;42.596;23.044;2023-07-20T10:42:55;5.28;;;3.55;;
15567;SDS011;7885;42.596;23.044;2023-07-20T10:45:32;6.13;;;3.45;;
15567;SDS011;7885;42.596;23.044;2023-07-20T10:48:02;10.10;;;4.05;;
15567;SDS011;7885;42.596;23.044;2023-07-20T10:50:30;6.93;;;3.45;;
15567;SDS011;7885;42.596;23.044;2023-07-20T10:53:11;7.88;;;3.55;;
15567;SDS011;7885;42.596;23.044;2023-07-20T10:55:39;7.15;;;3.75;;
15567;SDS011;7885;42.596;23.044;2023-07-20T10:58:07;7.03;;;3.80;;
15567;SDS011;7885;42.596;23.044;2023-07-20T11:00:35;5.30;;;3.72;;
15567;SDS011;7885;42.596;23.044;2023-07-20T11:03:02;6.30;;;4.00;;
15567;SDS011;7885;42.596;23.044;2023-07-20T11:05:35;9.23;;;4.40;;
15567;SDS011;7885;42.596;23.044;2023-07-20T11:08:04;14.57;;;4.50;;
15567;SDS011;7885;42.596;23.044;2023-07-20T11:10:34;13.50;;;5.00;;
15567;SDS011;7885;42.596;23.044;2023-07-20T11:13:19;8.02;;;4.25;;
15567;SDS011;7885;42.596;23.044;2023-07-20T11:16:01;7.25;;;4.75;;
15567;SDS011;7885;42.596;23.044;2023-07-20T11:18:29;9.70;;;4.80;;
15567;SDS011;7885;42.596;23.044;2023-07-20T11:20:57;9.73;;;4.55;;
15567;SDS011;7885;42.596;23.044;2023-07-20T11:23:24;9.02;;;4.68;;
15567;SDS011;7885;42.596;23.044;2023-07-20T11:25:52;7.10;;;4.35;;
15567;SDS011;7885;42.596;23.044;2023-07-20T11:28:19;9.57;;;5.40;;
15567;SDS011;7885;42.596;23.044;2023-07-20T11:30:49;11.00;;;4.43;;
15567;SDS011;7885;42.596;23.044;2023-07-20T11:33:18;13.05;;;5.40;;
15567;SDS011;7885;42.596;23.044;2023-07-20T11:35:45;6.75;;;4.60;;
15567;SDS011;7885;42.596;23.044;2023-07-20T11:38:12;10.55;;;4.28;;
15567;SDS011;7885;42.596;23.044;2023-07-20T11:40:42;7.40;;;4.65;;
15567;SDS011;7885;42.596;23.044;2023-07-20T11:43:11;7.68;;;5.05;;
15567;SDS011;7885;42.596;23.044;2023-07-20T11:45:38;7.75;;;4.63;;
15567;SDS011;7885;42.596;23.044;2023-07-20T11:48:06;9.80;;;4.72;;
15567;SDS011;7885;42.596;23.044;2023-07-20T11:50:38;5.65;;;4.57;;
15567;SDS011;7885;42.596;23.044;2023-07-20T11:53:06;6.72;;;5.18;;
15567;SDS011;7885;42.596;23.044;2023-07-20T11:55:32;11.30;;;5.05;;
15567;SDS011;7885;42.596;23.044;2023-07-20T11:58:03;11.45;;;4.93;;
15567;SDS011;7885;42.596;23.044;2023-07-20T12:00:31;8.60;;;4.75;;
15567;SDS011;7885;42.596;23.044;2023-07-20T12:02:59;10.20;;;4.80;;
15567;SDS011;7885;42.596;23.044;2023-07-20T12:05:26;8.43;;;4.57;;
15567;SDS011;7885;42.596;23.044;2023-07-20T12:07:53;8.93;;;4.55;;
15567;SDS011;7885;42.596;23.044;2023-07-20T12:10:24;7.85;;;4.70;;
15567;SDS011;7885;42.596;23.044;2023-07-20T12:12:53;9.88;;;5.03;;
15567;SDS011;7885;42.596;23.044;2023-07-20T12:15:21;10.60;;;5.10;;
15567;SDS011;7885;42.596;23.044;2023-07-20T12:17:53;7.97;;;4.22;;
15567;SDS011;7885;42.596;23.044;2023-07-20T12:20:25;8.35;;;4.55;;
15567;SDS011;7885;42.596;23.044;2023-07-20T12:22:55;7.57;;;4.10;;
15567;SDS011;7885;42.596;23.044;2023-07-20T12:25:23;6.47;;;4.40;;
15567;SDS011;7885;42.596;23.044;2023-07-20T12:27:49;6.95;;;4.18;;
15567;SDS011;7885;42.596;23.044;2023-07-20T12:30:16;7.93;;;4.78;;
15567;SDS011;7885;42.596;23.044;2023-07-20T12:32:43;6.80;;;4.60;;
15567;SDS011;7885;42.596;23.044;2023-07-20T12:35:11;9.93;;;4.75;;
15567;SDS011;7885;42.596;23.044;2023-07-20T12:37:39;6.53;;;4.20;;
15567;SDS011;7885;42.596;23.044;2023-07-20T12:40:07;8.77;;;4.40;;
15567;SDS011;7885;42.596;23.044;2023-07-20T12:42:35;8.45;;;4.07;;
15567;SDS011;7885;42.596;23.044;2023-07-20T12:45:03;8.85;;;3.85;;
15567;SDS011;7885;42.596;23.044;2023-07-20T12:47:31;6.78;;;3.65;;
15567;SDS011;7885;42.596;23.044;2023-07-20T12:49:58;8.50;;;4.10;;
15567;SDS011;7885;42.596;23.044;2023-07-20T12:52:26;8.57;;;4.00;;
15567;SDS011;7885;42.596;23.044;2023-07-20T12:54:52;5.97;;;3.75;;
15567;SDS011;7885;42.596;23.044;2023-07-20T12:57:19;7.03;;;3.80;;
15567;SDS011;7885;42.596;23.044;2023-07-20T12:59:46;9.65;;;4.28;;
15567;SDS011;7885;42.596;23.044;2023-07-20T13:02:12;7.38;;;3.40;;
15567;SDS011;7885;42.596;23.044;2023-07-20T13:04:39;8.57;;;4.00;;
15567;SDS011;7885;42.596;23.044;2023-07-20T13:07:09;9.25;;;4.30;;
15567;SDS011;7885;42.596;23.044;2023-07-20T13:09:38;10.82;;;4.03;;
15567;SDS011;7885;42.596;23.044;2023-07-20T13:12:05;5.55;;;3.53;;
15567;SDS011;7885;42.596;23.044;2023-07-20T13:14:32;6.45;;;4.22;;
15567;SDS011;7885;42.596;23.044;2023-07-20T13:16:59;6.63;;;4.03;;
15567;SDS011;7885;42.596;23.044;2023-07-20T13:19:26;8.35;;;3.88;;
15567;SDS011;7885;42.596;23.044;2023-07-20T13:21:53;7.10;;;3.65;;
15567;SDS011;7885;42.596;23.044;2023-07-20T13:24:19;10.82;;;4.18;;
15567;SDS011;7885;42.596;23.044;2023-07-20T13:26:48;7.22;;;3.92;;
15567;SDS011;7885;42.596;23.044;2023-07-20T13:29:14;9.93;;;4.10;;
15567;SDS011;7885;42.596;23.044;2023-07-20T13:31:42;8.32;;;3.83;;
15567;SDS011;7885;42.596;23.044;2023-07-20T13:34:08;7.05;;;3.65;;
15567;SDS011;7885;42.596;23.044;2023-07-20T13:36:35;6.63;;;3.55;;
15567;SDS011;7885;42.596;23.044;2023-07-20T13:39:02;6.57;;;3.50;;
15567;SDS011;7885;42.596;23.044;2023-07-20T13:41:30;7.45;;;3.63;;
15567;SDS011;7885;42.596;23.044;2023-07-20T13:43:58;20.85;;;4.85;;
15567;SDS011;7885;42.596;23.044;2023-07-20T13:46:25;8.10;;;4.13;;
15567;SDS011;7885;42.596;23.044;2023-07-20T13:48:52;12.77;;;4.75;;
15567;SDS011;7885;42.596;23.044;2023-07-20T13:51:19;6.95;;;3.60;;
15567;SDS011;7885;42.596;23.044;2023-07-20T13:53:45;6.07;;;3.50;;
15567;SDS011;7885;42.596;23.044;2023-07-20T13:56:12;6.78;;;3.33;;
15567;SDS011;7885;42.596;23.044;2023-07-20T13:58:39;8.68;;;3.42;;
15567;SDS011;7885;42.596;23.044;2023-07-20T14:01:07;9.48;;;3.25;;
15567;SDS011;7885;42.596;23.044;2023-07-20T14:03:34;5.30;;;3.00;;
15567;SDS011;7885;42.596;23.044;2023-07-20T14:06:00;6.40;;;3.08;;
15567;SDS011;7885;42.596;23.044;2023-07-20T14:08:27;6.40;;;3.17;;
15567;SDS011;7885;42.596;23.044;2023-07-20T14:10:55;9.07;;;3.17;;
15567;SDS011;7885;42.596;23.044;2023-07-20T14:13:22;5.07;;;2.92;;
15567;SDS011;7885;42.596;23.044;2023-07-20T14:15:48;7.38;;;3.08;;
15567;SDS011;7885;42.596;23.044;2023-07-20T14:18:18;7.90;;;3.17;;
15567;SDS011;7885;42.596;23.044;2023-07-20T14:20:44;7.63;;;3.25;;
15567;SDS011;7885;42.596;23.044;2023-07-20T14:23:11;8.43;;;3.45;;
15567;SDS011;7885;42.596;23.044;2023-07-20T14:25:38;6.55;;;3.20;;
15567;SDS011;7885;42.596;23.044;2023-07-20T14:28:05;7.22;;;3.25;;
15567;SDS011;7885;42.596;23.044;2023-07-20T14:30:32;7.32;;;3.10;;
15567;SDS011;7885;42.596;23.044;2023-07-20T14:32:58;14.45;;;3.28;;
15567;SDS011;7885;42.596;23.044;2023-07-20T14:35:27;7.75;;;2.75;;
15567;SDS011;7885;42.596;23.044;2023-07-20T14:37:53;7.32;;;2.55;;
15567;SDS011;7885;42.596;23.044;2023-07-20T14:40:20;7.85;;;2.65;;
15567;SDS011;7885;42.596;23.044;2023-07-20T14:42:47;8.48;;;2.70;;
15567;SDS011;7885;42.596;23.044;2023-07-20T14:45:13;7.30;;;2.75;;
15567;SDS011;7885;42.596;23.044;2023-07-20T14:47:40;5.85;;;2.58;;
15567;SDS011;7885;42.596;23.044;2023-07-20T14:50:08;5.95;;;2.70;;
15567;SDS011;7885;42.596;23.044;2023-07-20T14:52:37;8.77;;;2.90;;
15567;SDS011;7885;42.596;23.044;2023-07-20T14:55:04;6.65;;;2.65;;
15567;SDS011;7885;42.596;23.044;2023-07-20T14:57:31;7.03;;;2.58;;
15567;SDS011;7885;42.596;23.044;2023-07-20T14:59:58;8.10;;;2.40;;
15567;SDS011;7885;42.596;23.044;2023-07-20T15:02:25;7.85;;;3.28;;
15567;SDS011;7885;42.596;23.044;2023-07-20T15:04:52;7.57;;;2.50;;
15567;SDS011;7885;42.596;23.044;2023-07-20T15:07:20;6.50;;;2.53;;
15567;SDS011;7885;42.596;23.044;2023-07-20T15:09:49;8.10;;;2.53;;
15567;SDS011;7885;42.596;23.044;2023-07-20T15:12:15;6.75;;;2.63;;
15567;SDS011;7885;42.596;23.044;2023-07-20T15:14:42;8.60;;;2.70;;
15567;SDS011;7885;42.596;23.044;2023-07-20T15:17:09;7.18;;;2.80;;